Terminal Aerodrome Forecast
Issued by NWS Omaha/Valley, NE

Home | Current Version | Previous Version | Text Only | Print | Product List | Glossary On
Versions: 1 2 3 4 5 6 7 8 9 10 11 12 13 14 15 16 17 18 19 20 21 22
000
FTUS43 KOAX 241122
TAFOFK
TAF
KOFK 241122Z 2412/2512 10012KT 4SM BR VCSH OVC003
      TEMPO 2413/2415 2SM -SN BR
     FM241500 09015KT 1SM -SN BR OVC003
     FM241800 07015G23KT 1 1/2SM -SN BR OVC003
     FM242200 04014KT 1/2SM SN FG OVC003
     FM250000 02012KT 1SM -SN BR OVC008
     FM250200 36015KT 1 1/2SM -SN BR BLSN OVC003
     FM250600 34020G28KT 1 1/2SM -SN BR BLSN OVC008=

USA.gov is the U.S. government's official web portal to all federal, state and local government web resources and services.